F/V El Amanecer — FHKI — position and weather

sailwx.info

Track history (hours):
 
Tides and Currents Weather Stations Pressure Air Temp Water Temp Dewpoint Dewpoint Depression Visibility Wind Speed Wind Dir Waves Ship Positions

F/V El Amanecer

Last reported at 2018-Jun-20 07:53 UTC. Time now 2018-Jun-20 09:30 UTC.
Position N 46°21' W 004°17'.

Length 20 m; draft 3.5 m.

Type: Fishing. MMSI: 228157000.

Date/timePositionNaut miles runAvg speedWind from/ knotsBaromVisibWave heightAir tempDewpointWater temp
2018-Jun-20 07:53N 46°21' W 004°17'1 1.7
2018-Jun-20 07:27N 46°21' W 004°17'2 1.9
2018-Jun-20 06:30N 46°21' W 004°19'33 2.9
2018-Jun-19 19:03N 46°52' W 004°37'2 4.3
2018-Jun-19 18:39N 46°54' W 004°37'2 4.1
2018-Jun-19 18:16N 46°55' W 004°38'1 2.4
2018-Jun-19 18:00N 46°56' W 004°38'2 1.6
2018-Jun-19 16:28N 46°53' W 004°37'2 4.7
2018-Jun-19 16:00N 46°51' W 004°37'2 2.2
2018-Jun-19 15:09N 46°52' W 004°40'1 4.4
2018-Jun-19 14:53N 46°53' W 004°41'2 4.2
2018-Jun-19 14:18N 46°51' W 004°39'1 4.7
2018-Jun-19 14:00N 46°50' W 004°37'4 3.7
2018-Jun-19 12:59N 46°47' W 004°34'2 2.4
2018-Jun-19 12:12N 46°48' W 004°37'1 4.2
2018-Jun-19 11:54N 46°46' W 004°36'2 3.8
2018-Jun-19 11:18N 46°44' W 004°35'1 3.5
2018-Jun-19 10:55N 46°43' W 004°33'2 4.1
2018-Jun-19 10:30N 46°42' W 004°32'2 1.3
2018-Jun-19 09:20N 46°42' W 004°34'1 3.2
2018-Jun-19 09:00N 46°42' W 004°33'2 3.0
2018-Jun-19 08:28N 46°40' W 004°34'0 0.4
2018-Jun-19 07:34N 46°40' W 004°34'1 4.1
2018-Jun-19 07:22N 46°40' W 004°35'3 4.3
2018-Jun-19 06:39N 46°37' W 004°36'3 0.2
2018-Jun-18 16:36N 46°38' W 004°32'31 8.0
2018-Jun-18 12:43N 46°52' W 003°51'1 1.9
2018-Jun-18 12:26N 46°51' W 003°50'1 2.0
2018-Jun-18 11:52N 46°51' W 003°52'2 3.8
2018-Jun-18 11:28N 46°52' W 003°50'4 9.3
2018-Jun-18 10:59N 46°54' W 003°44'8 9.8
2018-Jun-18 10:09N 46°58' W 003°34'1 9.7
2018-Jun-18 10:00N 46°59' W 003°32'5 9.5
2018-Jun-18 09:31N 47°01' W 003°26'5 9.3
2018-Jun-18 09:01N 47°03' W 003°20'5 9.2
2018-Jun-18 08:30N 47°06' W 003°14'5 9.1
2018-Jun-18 08:00N 47°08' W 003°08'5 9.1
2018-Jun-18 07:29N 47°10' W 003°02'4 9.1
2018-Jun-18 07:00N 47°12' W 002°57'5 9.0
2018-Jun-18 06:30N 47°15' W 002°51'4 8.7
2018-Jun-18 05:59N 47°17' W 002°45'4 8.7
2018-Jun-18 05:31N 47°19' W 002°40'4 8.9
2018-Jun-18 05:00N 47°20' W 002°33'2 3.8
2018-Jun-18 04:30N 47°21' W 002°31'0 0.0
2018-Jun-18 03:59N 47°21' W 002°31'0 0.0
2018-Jun-18 03:27N 47°21' W 002°31'0 0.0
2018-Jun-18 03:00N 47°21' W 002°31'0 0.0
2018-Jun-18 02:30N 47°21' W 002°31'2 3.0
2018-Jun-18 01:59N 47°20' W 002°33'4 7.4
2018-Jun-18 01:30N 47°19' W 002°38'6 9.5
2018-Jun-18 00:55N 47°17' W 002°45'4 8.9
2018-Jun-18 00:27N 47°15' W 002°51'5 8.7
2018-Jun-17 23:55N 47°13' W 002°57'76 8.9
2018-Jun-17 15:24N 46°38' W 004°35'6 0.9
2018-Jun-17 08:16N 46°41' W 004°27'1 3.5
2018-Jun-17 07:57N 46°40' W 004°27'5 0.3
2018-Jun-16 17:11N 46°36' W 004°30'35 2.4
2018-Jun-16 02:36N 46°32' W 003°40'10 8.8
2018-Jun-16 01:28N 46°39' W 003°30'5 8.5
2018-Jun-16 00:55N 46°42' W 003°25'8 9.3
2018-Jun-16 00:00N 46°48' W 003°16'11 9.4
2018-Jun-15 22:47N 46°56' W 003°04'3 9.7
2018-Jun-15 22:29N 46°58' W 003°01'6 9.8
2018-Jun-15 21:56N 47°02' W 002°55'410.0
2018-Jun-15 21:29N 47°05' W 002°51'510.1
2018-Jun-15 21:00N 47°08' W 002°45'510.5
2018-Jun-15 20:30N 47°12' W 002°40'510.5
2018-Jun-15 20:00N 47°17' W 002°36'5 9.2
2018-Jun-15 19:30N 47°20' W 002°32'1 1.9
2018-Jun-15 19:01N 47°21' W 002°31'0 0.0
2018-Jun-15 18:30N 47°21' W 002°31'0 0.0
2018-Jun-15 07:58N 47°21' W 002°31'0 0.0
2018-Jun-14 09:39N 47°21' W 002°31'0 0.0
2018-Jun-14 09:30N 47°21' W 002°31'0 0.0
2018-Jun-14 08:58N 47°21' W 002°31'0 0.0
2018-Jun-14 08:30N 47°21' W 002°31'0 0.0
2018-Jun-14 08:00N 47°21' W 002°31'0 0.0
2018-Jun-14 07:30N 47°21' W 002°31'0 0.0
2018-Jun-14 06:59N 47°21' W 002°31'0 0.0
2018-Jun-14 06:29N 47°21' W 002°31'0 0.0
2018-Jun-14 06:00N 47°21' W 002°31'0 0.0
2018-Jun-14 05:30N 47°21' W 002°31'0 0.0
2018-Jun-14 05:00N 47°21' W 002°31'0 0.1
2018-Jun-14 04:25N 47°21' W 002°31'0 0.0
2018-Jun-14 04:00N 47°21' W 002°31'0 0.0
2018-Jun-14 03:30N 47°21' W 002°31'0 0.1
2018-Jun-14 02:59N 47°21' W 002°31'0 0.0
2018-Jun-14 02:30N 47°21' W 002°31'0 0.0
2018-Jun-14 02:00N 47°21' W 002°31'0 0.0
2018-Jun-14 01:30N 47°21' W 002°31'0 0.0
2018-Jun-14 01:00N 47°21' W 002°31'0 0.0
2018-Jun-14 00:31N 47°21' W 002°31'4 6.2
2018-Jun-13 23:54N 47°18' W 002°34'4 9.9
2018-Jun-13 23:30N 47°15' W 002°38'22 0.5
2018-Jun-12 06:27N 47°02' W 003°04'4 9.7
2018-Jun-12 06:00N 47°05' W 002°59'510.0
2018-Jun-12 05:27N 47°08' W 002°52'510.1
2018-Jun-12 04:59N 47°11' W 002°46'510.5
2018-Jun-12 04:30N 47°13' W 002°40'510.1
2018-Jun-12 04:00N 47°17' W 002°35'10 0.4
2018-Jun-11 02:48N 47°09' W 002°45'3 9.9
2018-Jun-11 02:28N 47°12' W 002°42'5 9.7
2018-Jun-11 02:00N 47°15' W 002°37'5 9.6
2018-Jun-11 01:31N 47°19' W 002°33'2 2.5
2018-Jun-11 00:33N 47°21' W 002°31'0 0.0
2018-Jun-11 00:03N 47°21' W 002°31'0 0.0
2018-Jun-10 23:47N 47°21' W 002°31'0 0.1
2018-Jun-10 23:17N 47°21' W 002°31'3 9.0
2018-Jun-10 22:56N 47°19' W 002°34'4 9.5
2018-Jun-10 22:29N 47°15' W 002°37'  
Track history (hours):
 
Tides and Currents Weather Stations Pressure Air Temp Water Temp Dewpoint Dewpoint Depression Visibility Wind Speed Wind Dir Waves Ship Positions

F/V El Amanecer

Last reported at 2018-Jun-20 07:53 UTC. Time now 2018-Jun-20 09:30 UTC.
Position N 46°21' W 004°17'.

Length 20 m; draft 3.5 m.

Type: Fishing. MMSI: 228157000.

Date/timePositionNaut miles runAvg speedWind from/ knotsBaromVisibWave heightAir tempDewpointWater temp
2018-Jun-20 07:53N 46°21' W 004°17'1 1.7
2018-Jun-20 07:27N 46°21' W 004°17'2 1.9
2018-Jun-20 06:30N 46°21' W 004°19'33 2.9
2018-Jun-19 19:03N 46°52' W 004°37'2 4.3
2018-Jun-19 18:39N 46°54' W 004°37'2 4.1
2018-Jun-19 18:16N 46°55' W 004°38'1 2.4
2018-Jun-19 18:00N 46°56' W 004°38'2 1.6
2018-Jun-19 16:28N 46°53' W 004°37'2 4.7
2018-Jun-19 16:00N 46°51' W 004°37'2 2.2
2018-Jun-19 15:09N 46°52' W 004°40'1 4.4
2018-Jun-19 14:53N 46°53' W 004°41'2 4.2
2018-Jun-19 14:18N 46°51' W 004°39'1 4.7
2018-Jun-19 14:00N 46°50' W 004°37'4 3.7
2018-Jun-19 12:59N 46°47' W 004°34'2 2.4
2018-Jun-19 12:12N 46°48' W 004°37'1 4.2
2018-Jun-19 11:54N 46°46' W 004°36'2 3.8
2018-Jun-19 11:18N 46°44' W 004°35'1 3.5
2018-Jun-19 10:55N 46°43' W 004°33'2 4.1
2018-Jun-19 10:30N 46°42' W 004°32'2 1.3
2018-Jun-19 09:20N 46°42' W 004°34'1 3.2
2018-Jun-19 09:00N 46°42' W 004°33'2 3.0
2018-Jun-19 08:28N 46°40' W 004°34'0 0.4
2018-Jun-19 07:34N 46°40' W 004°34'1 4.1
2018-Jun-19 07:22N 46°40' W 004°35'3 4.3
2018-Jun-19 06:39N 46°37' W 004°36'3 0.2
2018-Jun-18 16:36N 46°38' W 004°32'31 8.0
2018-Jun-18 12:43N 46°52' W 003°51'1 1.9
2018-Jun-18 12:26N 46°51' W 003°50'1 2.0
2018-Jun-18 11:52N 46°51' W 003°52'2 3.8
2018-Jun-18 11:28N 46°52' W 003°50'4 9.3
2018-Jun-18 10:59N 46°54' W 003°44'8 9.8
2018-Jun-18 10:09N 46°58' W 003°34'1 9.7
2018-Jun-18 10:00N 46°59' W 003°32'5 9.5
2018-Jun-18 09:31N 47°01' W 003°26'5 9.3
2018-Jun-18 09:01N 47°03' W 003°20'5 9.2
2018-Jun-18 08:30N 47°06' W 003°14'5 9.1
2018-Jun-18 08:00N 47°08' W 003°08'5 9.1
2018-Jun-18 07:29N 47°10' W 003°02'4 9.1
2018-Jun-18 07:00N 47°12' W 002°57'5 9.0
2018-Jun-18 06:30N 47°15' W 002°51'4 8.7
2018-Jun-18 05:59N 47°17' W 002°45'4 8.7
2018-Jun-18 05:31N 47°19' W 002°40'4 8.9
2018-Jun-18 05:00N 47°20' W 002°33'2 3.8
2018-Jun-18 04:30N 47°21' W 002°31'0 0.0
2018-Jun-18 03:59N 47°21' W 002°31'0 0.0
2018-Jun-18 03:27N 47°21' W 002°31'0 0.0
2018-Jun-18 03:00N 47°21' W 002°31'0 0.0
2018-Jun-18 02:30N 47°21' W 002°31'2 3.0
2018-Jun-18 01:59N 47°20' W 002°33'4 7.4
2018-Jun-18 01:30N 47°19' W 002°38'6 9.5
2018-Jun-18 00:55N 47°17' W 002°45'4 8.9
2018-Jun-18 00:27N 47°15' W 002°51'5 8.7
2018-Jun-17 23:55N 47°13' W 002°57'76 8.9
2018-Jun-17 15:24N 46°38' W 004°35'6 0.9
2018-Jun-17 08:16N 46°41' W 004°27'1 3.5
2018-Jun-17 07:57N 46°40' W 004°27'5 0.3
2018-Jun-16 17:11N 46°36' W 004°30'35 2.4
2018-Jun-16 02:36N 46°32' W 003°40'10 8.8
2018-Jun-16 01:28N 46°39' W 003°30'5 8.5
2018-Jun-16 00:55N 46°42' W 003°25'8 9.3
2018-Jun-16 00:00N 46°48' W 003°16'11 9.4
2018-Jun-15 22:47N 46°56' W 003°04'3 9.7
2018-Jun-15 22:29N 46°58' W 003°01'6 9.8
2018-Jun-15 21:56N 47°02' W 002°55'410.0
2018-Jun-15 21:29N 47°05' W 002°51'510.1
2018-Jun-15 21:00N 47°08' W 002°45'510.5
2018-Jun-15 20:30N 47°12' W 002°40'510.5
2018-Jun-15 20:00N 47°17' W 002°36'5 9.2
2018-Jun-15 19:30N 47°20' W 002°32'1 1.9
2018-Jun-15 19:01N 47°21' W 002°31'0 0.0
2018-Jun-15 18:30N 47°21' W 002°31'0 0.0
2018-Jun-15 07:58N 47°21' W 002°31'0 0.0
2018-Jun-14 09:39N 47°21' W 002°31'0 0.0
2018-Jun-14 09:30N 47°21' W 002°31'0 0.0
2018-Jun-14 08:58N 47°21' W 002°31'0 0.0
2018-Jun-14 08:30N 47°21' W 002°31'0 0.0
2018-Jun-14 08:00N 47°21' W 002°31'0 0.0
2018-Jun-14 07:30N 47°21' W 002°31'0 0.0
2018-Jun-14 06:59N 47°21' W 002°31'0 0.0
2018-Jun-14 06:29N 47°21' W 002°31'0 0.0
2018-Jun-14 06:00N 47°21' W 002°31'0 0.0
2018-Jun-14 05:30N 47°21' W 002°31'0 0.0
2018-Jun-14 05:00N 47°21' W 002°31'0 0.1
2018-Jun-14 04:25N 47°21' W 002°31'0 0.0
2018-Jun-14 04:00N 47°21' W 002°31'0 0.0
2018-Jun-14 03:30N 47°21' W 002°31'0 0.1
2018-Jun-14 02:59N 47°21' W 002°31'0 0.0
2018-Jun-14 02:30N 47°21' W 002°31'0 0.0
2018-Jun-14 02:00N 47°21' W 002°31'0 0.0
2018-Jun-14 01:30N 47°21' W 002°31'0 0.0
2018-Jun-14 01:00N 47°21' W 002°31'0 0.0
2018-Jun-14 00:31N 47°21' W 002°31'4 6.2
2018-Jun-13 23:54N 47°18' W 002°34'4 9.9
2018-Jun-13 23:30N 47°15' W 002°38'22 0.5
2018-Jun-12 06:27N 47°02' W 003°04'4 9.7
2018-Jun-12 06:00N 47°05' W 002°59'510.0
2018-Jun-12 05:27N 47°08' W 002°52'510.1
2018-Jun-12 04:59N 47°11' W 002°46'510.5
2018-Jun-12 04:30N 47°13' W 002°40'510.1
2018-Jun-12 04:00N 47°17' W 002°35'10 0.4
2018-Jun-11 02:48N 47°09' W 002°45'3 9.9
2018-Jun-11 02:28N 47°12' W 002°42'5 9.7
2018-Jun-11 02:00N 47°15' W 002°37'5 9.6
2018-Jun-11 01:31N 47°19' W 002°33'2 2.5
2018-Jun-11 00:33N 47°21' W 002°31'0 0.0
2018-Jun-11 00:03N 47°21' W 002°31'0 0.0
2018-Jun-10 23:47N 47°21' W 002°31'0 0.1
2018-Jun-10 23:17N 47°21' W 002°31'3 9.0
2018-Jun-10 22:56N 47°19' W 002°34'4 9.5
2018-Jun-10 22:29N 47°15' W 002°37'  

Dump ship's entire track history